Time;durP1;ratioP1;P1;durP2;ratioP2;P2;SDS_P1;SDS_P2;PMS_P1;PMS_P2;Temp;Humidity;BMP_temperature;BMP_pressure;BME280_temperature;BME280_humidity;BME280_pressure;Samples;Min_cycle;Max_cycle;Signal;HPM_P1;HPM_P2
2022/04/13 00:01:57;;;;;;;42.63;22.37;;;1.20;99.90;0.20;101043;;;;576413;245;24067;-86
2022/04/13 00:04:24;;;;;;;47.17;22.20;;;1.20;99.90;0.20;101038;;;;579509;245;46524;-87
2022/04/13 00:06:52;;;;;;;37.53;15.60;;;1.20;99.90;0.10;101046;;;;575940;245;24137;-85
2022/04/13 00:09:20;;;;;;;30.37;14.53;;;1.20;99.90;0.10;101045;;;;584817;245;24093;-85
2022/04/13 00:11:48;;;;;;;25.10;14.27;;;1.20;99.90;0.10;101042;;;;584459;245;24159;-88
2022/04/13 00:14:16;;;;;;;33.37;16.70;;;1.20;99.90;0.10;101040;;;;584245;246;24062;-86
2022/04/13 00:16:44;;;;;;;29.80;14.30;;;1.20;99.90;0.20;101037;;;;575419;246;24147;-85
2022/04/13 00:19:12;;;;;;;28.20;12.50;;;1.20;99.90;0.20;101028;;;;584260;246;24114;-86
2022/04/13 00:21:40;;;;;;;22.63;11.43;;;1.20;99.90;0.30;101034;;;;584326;246;24112;-82
2022/04/13 00:24:12;;;;;;;18.87;10.53;;;1.30;99.90;0.30;101026;;;;584104;246;24095;-87
2022/04/13 00:26:37;;;;;;;24.73;12.13;;;1.30;99.90;0.40;101024;;;;584278;243;24104;-87
2022/04/13 00:29:10;;;;;;;34.13;15.83;;;1.40;99.90;0.40;101029;;;;584285;246;24104;-85
2022/04/13 00:31:40;;;;;;;37.00;19.93;;;1.50;99.90;0.40;101022;;;;573239;245;24115;-88
2022/04/13 00:34:11;;;;;;;36.97;20.27;;;1.40;99.90;0.30;101020;;;;579444;246;24087;-89
2022/04/13 00:36:39;;;;;;;36.33;20.47;;;1.40;99.90;0.30;101015;;;;584511;246;24100;-85
2022/04/13 00:39:08;;;;;;;33.70;19.57;;;1.30;99.90;0.30;101012;;;;575095;246;24126;-87
2022/04/13 00:41:38;;;;;;;42.83;22.63;;;1.30;99.90;0.20;101010;;;;583914;246;24111;-86
2022/04/13 00:44:09;;;;;;;37.63;21.55;;;1.30;99.90;0.20;101002;;;;569826;246;35332;-84
2022/04/13 00:46:37;;;;;;;26.53;9.73;;;1.30;99.90;0.20;101008;;;;578695;246;24087;-84
2022/04/13 00:49:05;;;;;;;9.93;7.00;;;1.30;99.90;0.20;100992;;;;575028;246;24107;-88
2022/04/13 00:51:34;;;;;;;12.70;5.00;;;1.30;99.90;0.30;100990;;;;574584;246;24127;-84
2022/04/13 00:54:02;;;;;;;10.33;4.73;;;1.30;99.90;0.40;100974;;;;574771;246;24100;-86
2022/04/13 00:56:30;;;;;;;12.37;5.17;;;1.40;99.90;0.50;100969;;;;578746;246;24110;-88
2022/04/13 00:59:03;;;;;;;17.13;5.57;;;1.50;99.90;0.60;100981;;;;583709;246;24099;-83
2022/04/13 01:01:34;;;;;;;12.33;7.53;;;1.60;99.90;0.60;100985;;;;578795;246;24134;-86
2022/04/13 01:04:03;;;;;;;16.93;8.13;;;1.70;99.90;0.70;100984;;;;574837;246;24118;-88
2022/04/13 01:06:28;;;;;;;26.70;12.70;;;1.70;99.90;0.70;100986;;;;580886;245;24149;-88
2022/04/13 01:08:56;;;;;;;23.03;14.23;;;1.70;99.90;0.70;100985;;;;581341;245;24087;-86
2022/04/13 01:11:26;;;;;;;22.50;13.67;;;1.70;99.90;0.60;100994;;;;573793;245;24133;-87
2022/04/13 01:13:56;;;;;;;16.80;9.87;;;1.60;99.90;0.50;100990;;;;562669;251;24167;-86
2022/04/13 01:16:27;;;;;;;21.67;11.07;;;1.60;99.90;0.50;101002;;;;590826;243;24123;-89
2022/04/13 01:18:54;;;;;;;18.17;11.10;;;1.60;99.90;0.60;101001;;;;583170;242;24120;-86
2022/04/13 01:21:23;;;;;;;27.00;13.33;;;1.60;99.90;0.60;101013;;;;560593;251;24141;-87
2022/04/13 01:23:50;;;;;;;24.97;13.57;;;1.60;99.90;0.50;101010;;;;581367;243;24131;-87
2022/04/13 01:26:15;;;;;;;27.70;15.20;;;1.60;99.90;0.50;101014;;;;590979;242;24106;-87
2022/04/13 01:28:43;;;;;;;95.03;34.87;;;1.60;99.90;0.40;101025;;;;592243;241;24119;-88
2022/04/13 01:31:11;;;;;;;224.88;67.78;;;1.50;99.90;0.40;101027;;;;587049;242;46022;-88
2022/04/13 01:33:43;;;;;;;312.13;81.87;;;1.40;99.90;0.30;101028;;;;591666;242;24109;-88
2022/04/13 01:36:07;;;;;;;123.03;35.47;;;1.40;99.90;0.20;101022;;;;579982;241;24126;-88
2022/04/13 01:38:38;;;;;;;80.30;24.77;;;1.30;99.90;0.20;101034;;;;591681;242;24074;-87
2022/04/13 01:41:04;;;;;;;34.97;12.70;;;1.30;99.90;0.20;101028;;;;561636;251;24117;-87
2022/04/13 01:43:36;;;;;;;42.43;15.63;;;1.30;99.90;0.20;101022;;;;583164;243;24071;-87
2022/04/13 01:46:00;;;;;;;37.90;14.27;;;1.30;99.90;0.20;101022;;;;590916;243;24079;-88
2022/04/13 01:48:31;;;;;;;37.00;17.47;;;1.30;99.90;0.20;101023;;;;591576;242;24062;-88
2022/04/13 01:50:59;;;;;;;24.83;13.67;;;1.30;99.90;0.30;101022;;;;591174;243;24190;-85
2022/04/13 01:53:23;;;;;;;33.13;15.13;;;1.30;99.90;0.30;101031;;;;578214;243;25109;-88
2022/04/13 01:55:55;;;;;;;23.90;12.77;;;1.30;99.90;0.30;101018;;;;591431;242;24170;-87
2022/04/13 01:58:23;;;;;;;26.77;12.40;;;1.40;99.90;0.30;101027;;;;574792;243;35151;-89
2022/04/13 02:00:53;;;;;;;16.70;9.00;;;1.40;99.90;0.30;101028;;;;582164;243;24092;-88
2022/04/13 02:03:15;;;;;;;19.10;9.53;;;1.40;99.90;0.30;101021;;;;582111;243;24077;-86
2022/04/13 02:05:43;;;;;;;20.63;10.50;;;1.40;99.90;0.30;101025;;;;591575;243;24089;-87
2022/04/13 02:08:11;;;;;;;14.37;6.73;;;1.30;99.90;0.30;101025;;;;591372;242;24205;-88
2022/04/13 02:10:39;;;;;;;13.63;6.80;;;1.30;99.90;0.30;101025;;;;580215;247;24084;-88
2022/04/13 02:13:07;;;;;;;14.23;7.67;;;1.40;99.90;0.40;101035;;;;589735;243;24115;-88
2022/04/13 02:15:38;;;;;;;9.70;6.23;;;1.40;99.90;0.40;101029;;;;591386;242;24083;-87
2022/04/13 02:18:02;;;;;;;24.65;10.40;;;1.50;99.90;0.50;101024;;;;578007;242;35142;-88
2022/04/13 02:20:30;;;;;;;22.52;10.35;;;1.50;99.90;0.60;101035;;;;587448;242;46066;-88
2022/04/13 02:23:01;;;;;;;18.00;9.07;;;1.60;99.90;0.60;101030;;;;592519;242;24072;-87
2022/04/13 02:25:27;;;;;;;19.43;7.40;;;1.60;99.90;0.60;101034;;;;592223;241;24055;-87
2022/04/13 02:27:55;;;;;;;16.30;7.17;;;1.70;99.90;0.60;101041;;;;592218;242;24115;-86
2022/04/13 02:30:23;;;;;;;18.07;8.53;;;1.70;99.90;0.60;101047;;;;592019;242;24074;-84
2022/04/13 02:32:51;;;;;;;20.87;9.57;;;1.70;99.90;0.60;101042;;;;591932;242;24060;-85
2022/04/13 02:35:20;;;;;;;23.73;10.60;;;1.60;99.90;0.50;101045;;;;581024;247;25177;-85
2022/04/13 02:37:48;;;;;;;21.13;10.37;;;1.60;99.90;0.50;101037;;;;580405;245;24097;-82
2022/04/13 02:40:16;;;;;;;21.00;9.83;;;1.60;99.90;0.40;101048;;;;581826;246;24166;-84
2022/04/13 02:42:44;;;;;;;15.17;9.07;;;1.50;99.90;0.40;101042;;;;563029;250;24243;-84
2022/04/13 02:45:15;;;;;;;15.43;9.30;;;1.50;99.90;0.40;101040;;;;584029;245;24078;-83
2022/04/13 02:47:40;;;;;;;13.37;7.57;;;1.50;99.90;0.40;101043;;;;574300;245;24125;-83
2022/04/13 02:50:08;;;;;;;19.23;8.07;;;1.50;99.90;0.50;101040;;;;583697;245;24107;-85
2022/04/13 02:52:36;;;;;;;23.80;11.40;;;1.50;99.90;0.50;101042;;;;583924;245;24123;-83
2022/04/13 02:55:03;;;;;;;20.20;10.77;;;1.60;99.90;0.50;101049;;;;583724;245;24076;-83
2022/04/13 02:57:31;;;;;;;19.37;9.67;;;1.60;99.90;0.40;101044;;;;574452;245;25134;-82
2022/04/13 02:59:59;;;;;;;25.00;13.73;;;1.50;99.90;0.40;101043;;;;574549;245;24118;-83
2022/04/13 03:02:29;;;;;;;24.07;13.43;;;1.40;99.90;0.30;101051;;;;583388;245;24193;-81
2022/04/13 03:04:55;;;;;;;23.50;13.13;;;1.40;99.90;0.20;101043;;;;583552;245;24133;-82
2022/04/13 03:07:25;;;;;;;26.73;14.67;;;1.30;99.90;0.20;101043;;;;583724;245;24073;-82
2022/04/13 03:09:51;;;;;;;20.67;13.17;;;1.30;99.90;0.20;101034;;;;584217;245;24118;-84
2022/04/13 03:12:19;;;;;;;24.23;12.97;;;1.20;99.90;0.20;101031;;;;583987;245;24132;-82
2022/04/13 03:14:48;;;;;;;26.97;13.10;;;1.20;99.90;0.20;101024;;;;583422;245;24126;-82
2022/04/13 03:17:16;;;;;;;26.57;14.40;;;1.20;99.90;0.20;101025;;;;583596;245;24137;-84
2022/04/13 03:19:46;;;;;;;26.53;13.63;;;1.20;99.90;0.10;101028;;;;583721;245;24114;-81
2022/04/13 03:22:11;;;;;;;22.13;12.63;;;1.20;99.90;0.10;101033;;;;584769;245;25181;-84
2022/04/13 03:24:39;;;;;;;23.47;13.67;;;1.10;99.90;0.10;101032;;;;583535;245;24192;-83
2022/04/13 03:27:07;;;;;;;21.00;14.33;;;1.10;99.90;0.10;101034;;;;583537;245;24095;-87
2022/04/13 03:29:36;;;;;;;24.93;12.47;;;1.10;99.90;0.10;101040;;;;584299;244;24099;-84
2022/04/13 03:32:05;;;;;;;19.20;12.40;;;1.10;99.90;0.00;101038;;;;584495;245;24110;-84
2022/04/13 03:34:33;;;;;;;20.33;12.07;;;1.10;99.90;0.00;101033;;;;584493;245;24157;-81
2022/04/13 03:37:02;;;;;;;23.07;12.23;;;1.10;99.90;0.00;101028;;;;584516;245;24083;-83
2022/04/13 03:39:33;;;;;;;29.13;15.00;;;1.00;99.90;0.00;101024;;;;584351;245;24124;-84
2022/04/13 03:41:58;;;;;;;18.90;12.50;;;1.10;99.90;0.10;101023;;;;583966;245;24102;-87
2022/04/13 03:44:26;;;;;;;19.73;12.77;;;1.10;99.90;0.20;101018;;;;584307;245;24139;-83
2022/04/13 03:46:54;;;;;;;21.20;12.47;;;1.20;99.90;0.20;101018;;;;584255;245;24142;-87
2022/04/13 03:49:25;;;;;;;22.10;13.27;;;1.30;99.90;0.20;101028;;;;583955;241;24118;-85
2022/04/13 03:51:50;;;;;;;22.60;13.67;;;1.30;99.90;0.20;101013;;;;583735;242;24092;-88
2022/04/13 03:54:19;;;;;;;18.67;12.60;;;1.20;99.90;0.10;101017;;;;583988;245;24089;-86
2022/04/13 03:56:50;;;;;;;24.30;14.77;;;1.20;99.90;0.10;101026;;;;583983;245;24149;-83
2022/04/13 03:59:15;;;;;;;22.27;12.90;;;1.20;99.90;0.10;101038;;;;575225;245;24141;-84
2022/04/13 04:01:43;;;;;;;20.03;13.60;;;1.20;99.90;0.10;101034;;;;574734;245;24088;-86
2022/04/13 04:04:11;;;;;;;22.73;12.90;;;1.20;99.90;0.20;101028;;;;583792;245;24067;-87
2022/04/13 04:06:38;;;;;;;26.67;12.93;;;1.20;99.90;0.20;101036;;;;583614;245;24107;-87
2022/04/13 04:09:06;;;;;;;23.67;12.30;;;1.20;99.90;0.20;101036;;;;583755;245;24074;-85
2022/04/13 04:11:35;;;;;;;18.10;11.30;;;1.30;99.90;0.30;101041;;;;583404;245;24092;-86
2022/04/13 04:14:04;;;;;;;21.80;10.07;;;1.40;99.90;0.40;101042;;;;583841;245;25110;-86
2022/04/13 04:16:32;;;;;;;11.97;7.37;;;1.40;99.90;0.40;101043;;;;583476;245;24088;-87
2022/04/13 04:19:00;;;;;;;17.33;7.77;;;1.50;99.90;0.50;101051;;;;583430;245;24083;-86
2022/04/13 04:21:27;;;;;;;14.03;7.13;;;1.50;99.90;0.60;101052;;;;583604;245;24121;-89
2022/04/13 04:23:55;;;;;;;17.33;8.23;;;1.60;99.90;0.70;101047;;;;583592;245;24077;-89
2022/04/13 04:26:23;;;;;;;12.47;7.67;;;1.70;99.90;0.70;101044;;;;584091;245;24093;-89
2022/04/13 04:28:51;;;;;;;15.73;6.67;;;1.70;99.90;0.80;101041;;;;584010;245;24075;-89
2022/04/13 04:31:49;;;;;;;16.57;7.80;;;1.80;99.90;0.90;101046;;;;584096;245;24092;-84
2022/04/13 04:33:51;;;;;;;13.43;6.10;;;1.80;99.90;0.90;101055;;;;581765;245;24095;-88
2022/04/13 04:36:16;;;;;;;11.90;6.70;;;2.00;99.90;1.00;101057;;;;572687;245;24113;-90
2022/04/13 04:38:44;;;;;;;16.83;6.23;;;2.00;99.90;1.20;101058;;;;583917;245;24068;-87
2022/04/13 04:41:11;;;;;;;14.13;6.80;;;2.10;99.90;1.30;101059;;;;584781;244;24094;-90
2022/04/13 04:43:39;;;;;;;15.10;6.47;;;2.30;99.90;1.40;101061;;;;585035;245;24074;-89
2022/04/13 04:46:10;;;;;;;10.97;6.77;;;2.50;99.90;1.60;101081;;;;584839;245;24210;-86
2022/04/13 04:48:39;;;;;;;11.20;7.20;;;2.50;99.90;1.70;101076;;;;584510;245;24103;-87
2022/04/13 04:51:06;;;;;;;16.73;7.63;;;2.70;99.90;1.90;101082;;;;584089;245;24084;-90
2022/04/13 04:53:34;;;;;;;13.83;7.50;;;2.80;99.90;2.70;101085;;;;583981;245;24114;-89
2022/04/13 04:56:02;;;;;;;23.70;10.63;;;3.40;99.90;4.30;101100;;;;561996;251;24134;-87
2022/04/13 04:58:30;;;;;;;19.63;10.40;;;4.90;99.90;6.10;101105;;;;575262;245;24130;-86
2022/04/13 05:00:58;;;;;;;15.70;8.50;;;6.60;99.90;7.90;101111;;;;581499;246;24152;-88
2022/04/13 05:03:26;;;;;;;18.60;10.10;;;8.40;99.90;9.50;101112;;;;579954;247;24140;-86
2022/04/13 05:05:54;;;;;;;15.50;9.23;;;10.10;99.90;10.90;101118;;;;584295;245;24085;-88
2022/04/13 05:08:22;;;;;;;18.23;8.40;;;11.60;99.90;12.20;101119;;;;582014;246;24147;-87
2022/04/13 05:10:53;;;;;;;17.20;7.60;;;12.90;99.90;13.10;101123;;;;573556;247;24153;-87
2022/04/13 05:13:20;;;;;;;21.67;8.50;;;13.90;99.90;14.30;101124;;;;562617;250;24110;-88
2022/04/13 05:15:48;;;;;;;15.37;7.90;;;15.00;99.90;15.00;101123;;;;585240;243;24144;-86
2022/04/13 05:18:16;;;;;;;13.73;7.90;;;15.80;98.40;15.70;101120;;;;573459;248;24126;-89
2022/04/13 05:20:44;;;;;;;17.93;11.30;;;16.60;92.50;16.80;101112;;;;572899;250;24156;-88
2022/04/13 05:23:12;;;;;;;12.07;8.90;;;17.60;80.00;17.40;101114;;;;583986;245;24186;-88
2022/04/13 05:25:40;;;;;;;13.83;8.23;;;18.30;69.40;18.00;101116;;;;581550;247;24116;-89
2022/04/13 05:28:09;;;;;;;15.23;7.50;;;19.60;61.80;18.80;101120;;;;573383;250;24156;-90
2022/04/13 05:30:37;;;;;;;12.87;6.97;;;19.50;61.70;19.40;101126;;;;572719;250;24324;-88
2022/04/13 05:33:07;;;;;;;11.33;7.07;;;20.20;58.90;20.00;101121;;;;573360;250;24166;-86
2022/04/13 05:35:35;;;;;;;17.20;8.07;;;20.80;54.80;20.20;101132;;;;573974;250;23132;-88
2022/04/13 05:38:02;;;;;;;19.07;7.83;;;21.10;53.30;20.80;101135;;;;569851;249;23225;-87
2022/04/13 05:40:31;;;;;;;17.80;8.60;;;21.60;52.30;21.40;101139;;;;581751;247;24116;-86
2022/04/13 05:42:56;;;;;;;17.50;10.33;;;22.20;52.40;22.20;101136;;;;564408;250;23231;-86
2022/04/13 05:45:25;;;;;;;14.03;7.27;;;23.10;51.70;23.00;101132;;;;583454;245;24098;-85
2022/04/13 05:47:52;;;;;;;22.97;8.63;;;23.90;48.90;23.30;101133;;;;573811;250;24097;-85
2022/04/13 05:50:20;;;;;;;21.53;8.37;;;24.30;46.90;24.00;101132;;;;572216;247;23146;-84
2022/04/13 05:52:48;;;;;;;14.67;7.40;;;24.80;45.50;24.80;101134;;;;575636;245;23194;-84
2022/04/13 05:55:16;;;;;;;15.87;7.83;;;25.50;43.80;25.60;101156;;;;576135;245;23120;-85
2022/04/13 05:57:44;;;;;;;19.90;7.53;;;26.30;43.80;26.40;101161;;;;584610;245;23091;-86
2022/04/13 06:00:12;;;;;;;17.53;7.10;;;27.10;42.30;26.60;101167;;;;584102;245;23100;-88
2022/04/13 06:02:39;;;;;;;16.20;7.40;;;27.50;40.40;26.80;101167;;;;573134;245;24105;-87
2022/04/13 06:05:07;;;;;;;36.70;9.67;;;27.60;40.30;26.70;101169;;;;570505;248;24295;-86
2022/04/13 06:07:35;;;;;;;12.73;7.20;;;27.70;38.60;25.40;101176;;;;575302;245;23085;-87
2022/04/13 06:10:06;;;;;;;13.40;7.17;;;26.90;37.20;24.40;101177;;;;581747;246;23182;-87
2022/04/13 06:12:32;;;;;;;19.43;8.83;;;25.80;38.60;25.40;101178;;;;562232;251;23157;-89
2022/04/13 06:15:12;;;;;;;25.83;9.07;;;26.10;39.20;25.70;101179;;;;584983;243;23087;-84
2022/04/13 06:17:44;;;;;;;16.93;7.53;;;26.50;38.40;24.50;101179;;;;565088;250;24105;-84
2022/04/13 06:20:08;;;;;;;10.40;7.47;;;25.80;38.20;23.00;101172;;;;572937;246;24020;-84
2022/04/13 06:22:39;;;;;;;16.97;7.93;;;24.60;39.40;22.80;101175;;;;581202;245;26311;-86
2022/04/13 06:25:07;;;;;;;16.37;8.23;;;24.00;41.10;23.40;101179;;;;579595;245;24112;-85
2022/04/13 06:27:39;;;;;;;9.63;7.53;;;24.30;40.50;23.50;101161;;;;579320;245;24162;-82
2022/04/13 06:30:07;;;;;;;16.20;8.00;;;24.20;40.40;23.20;101150;;;;574269;245;24177;-83
2022/04/13 06:32:34;;;;;;;12.37;8.30;;;24.10;40.90;22.40;101164;;;;582947;245;24114;-84
2022/04/13 06:35:02;;;;;;;11.27;7.80;;;23.50;41.90;21.20;101167;;;;579165;245;24206;-84
2022/04/13 06:37:30;;;;;;;14.57;7.93;;;22.50;43.10;20.20;101167;;;;584125;245;24084;-88
2022/04/13 06:40:01;;;;;;;18.03;8.50;;;21.50;44.10;19.10;101166;;;;575188;245;24122;-87
2022/04/13 06:42:27;;;;;;;14.37;8.07;;;20.50;45.50;18.20;101165;;;;572518;245;24103;-86
2022/04/13 06:44:55;;;;;;;13.60;8.23;;;19.60;47.00;17.10;101167;;;;574904;245;24106;-88
2022/04/13 06:47:23;;;;;;;11.60;7.70;;;18.40;48.60;16.20;101174;;;;583860;245;24079;-88
2022/04/13 06:49:51;;;;;;;11.40;8.20;;;17.40;50.70;15.70;101173;;;;583713;244;24117;-88
2022/04/13 06:52:19;;;;;;;18.47;9.77;;;16.70;52.50;15.10;101164;;;;583644;245;24084;-87
2022/04/13 06:54:50;;;;;;;17.93;11.40;;;16.10;53.60;14.70;101175;;;;583536;245;24106;-86
2022/04/13 06:57:18;;;;;;;18.73;12.63;;;15.60;55.40;14.20;101176;;;;583206;242;24093;-87
2022/04/13 06:59:43;;;;;;;16.03;12.53;;;15.10;56.60;13.70;101170;;;;581190;244;24131;-87
2022/04/13 07:02:11;;;;;;;21.27;13.27;;;14.60;58.00;13.00;101176;;;;583491;245;24072;-88
2022/04/13 07:04:39;;;;;;;22.47;12.47;;;14.00;59.40;12.50;101182;;;;584694;244;24095;-86
2022/04/13 07:07:06;;;;;;;21.53;13.00;;;13.50;60.90;12.10;101176;;;;582947;243;24101;-90
2022/04/13 07:09:37;;;;;;;21.57;12.37;;;13.10;62.20;11.80;101164;;;;570344;250;24104;-88
2022/04/13 07:12:02;;;;;;;18.40;12.13;;;12.70;63.70;11.40;101164;;;;564626;250;24175;-86
2022/04/13 07:14:30;;;;;;;21.10;13.20;;;12.40;65.50;11.10;101164;;;;573251;250;24104;-86
2022/04/13 07:16:58;;;;;;;20.47;13.03;;;12.00;66.80;10.80;101171;;;;576888;245;24080;-87
2022/04/13 07:19:26;;;;;;;21.03;12.83;;;11.70;68.00;10.50;101165;;;;584615;245;24106;-88
2022/04/13 07:21:54;;;;;;;17.77;10.83;;;11.40;69.20;10.20;101164;;;;584404;245;24125;-84
2022/04/13 07:24:22;;;;;;;15.93;10.17;;;11.10;70.30;10.00;101166;;;;584267;245;24108;-87
2022/04/13 07:26:51;;;;;;;16.80;9.47;;;10.80;72.00;10.00;101172;;;;584328;245;24083;-84
2022/04/13 07:29:19;;;;;;;14.73;9.60;;;10.80;71.60;10.00;101166;;;;573311;246;24153;-86
2022/04/13 07:31:46;;;;;;;16.23;10.57;;;10.80;72.30;10.00;101163;;;;573821;248;24122;-87
2022/04/13 07:34:17;;;;;;;15.80;8.97;;;10.80;72.90;10.00;101166;;;;564807;250;24134;-85
2022/04/13 07:36:42;;;;;;;18.20;9.37;;;10.80;73.00;10.10;101169;;;;575254;245;24121;-86
2022/04/13 07:39:10;;;;;;;15.97;9.97;;;10.80;73.30;10.20;101172;;;;583706;245;24125;-86
2022/04/13 07:41:38;;;;;;;14.07;9.07;;;10.90;73.70;10.30;101173;;;;583515;245;24126;-87
2022/04/13 07:44:06;;;;;;;14.87;9.63;;;11.10;73.20;10.50;101179;;;;583516;245;24097;-85
2022/04/13 07:46:34;;;;;;;22.57;9.70;;;11.30;73.00;10.70;101175;;;;572332;245;24141;-86
2022/04/13 07:49:09;;;;;;;17.27;10.10;;;11.40;73.00;11.00;101180;;;;574662;245;24149;-86
2022/04/13 07:51:39;;;;;;;23.00;9.67;;;11.70;73.40;11.20;101182;;;;580722;245;24175;-85
2022/04/13 07:54:05;;;;;;;19.87;9.93;;;11.90;71.50;11.30;101178;;;;574367;245;24152;-86
2022/04/13 07:56:36;;;;;;;18.37;10.23;;;12.10;71.80;11.30;101171;;;;583654;245;24136;-86
2022/04/13 07:59:01;;;;;;;15.70;10.20;;;12.20;71.40;11.30;101179;;;;572856;245;24115;-87
2022/04/13 08:01:30;;;;;;;24.20;12.30;;;12.20;70.90;11.30;101176;;;;578347;245;35370;-87
2022/04/13 08:03:58;;;;;;;21.33;10.97;;;12.20;70.90;11.30;101167;;;;583523;245;24094;-90
2022/04/13 08:06:26;;;;;;;19.60;11.30;;;12.20;70.50;11.30;101166;;;;583486;245;24110;-86
2022/04/13 08:08:54;;;;;;;19.87;11.30;;;12.20;70.70;11.30;101161;;;;583877;245;24118;-87
2022/04/13 08:11:22;;;;;;;20.33;11.50;;;12.20;70.90;11.30;101156;;;;583809;245;24081;-87
2022/04/13 08:13:49;;;;;;;19.73;13.50;;;12.20;71.50;11.40;101152;;;;578752;245;35304;-84
2022/04/13 08:16:17;;;;;;;21.83;11.87;;;12.30;71.80;11.40;101160;;;;584956;244;24056;-86
2022/04/13 08:18:47;;;;;;;19.90;11.73;;;12.20;71.60;11.40;101150;;;;584952;245;24110;-87
2022/04/13 08:21:13;;;;;;;37.53;13.13;;;12.20;71.80;11.50;101153;;;;584553;245;24180;-87
2022/04/13 08:23:41;;;;;;;28.43;12.37;;;12.30;71.70;11.60;101159;;;;584622;245;24133;-88
2022/04/13 08:26:09;;;;;;;20.00;12.47;;;12.40;70.80;11.50;101164;;;;579265;245;35323;-88
2022/04/13 08:28:37;;;;;;;30.27;11.70;;;12.40;70.60;11.30;101170;;;;584460;245;24098;-83
2022/04/13 08:31:09;;;;;;;16.50;10.17;;;12.20;71.00;11.40;101166;;;;584720;245;24145;-88
2022/04/13 08:33:33;;;;;;;17.70;10.93;;;12.20;71.60;11.50;101157;;;;572960;250;24111;-86
2022/04/13 08:36:01;;;;;;;14.67;9.10;;;12.30;71.60;11.50;101161;;;;573722;250;24114;-81
2022/04/13 08:38:32;;;;;;;27.23;10.70;;;12.30;71.70;11.50;101164;;;;582524;246;24107;-81
2022/04/13 08:40:59;;;;;;;23.80;10.47;;;12.40;71.70;11.80;101167;;;;584313;242;24167;-86
2022/04/13 08:43:52;;;;;;;25.07;10.97;;;12.80;71.50;12.10;101177;;;;570557;246;24116;-82
2022/04/13 08:46:26;;;;;;;26.03;10.50;;;13.10;70.50;12.40;101166;;;;584327;245;24109;-85
2022/04/13 08:48:57;;;;;;;43.73;11.10;;;13.10;70.50;12.70;101171;;;;568446;247;24206;-84
2022/04/13 08:51:28;;;;;;;37.90;12.20;;;13.40;69.80;13.00;101171;;;;581507;245;24115;-82
2022/04/13 08:53:56;;;;;;;31.43;11.17;;;13.80;69.80;13.60;101172;;;;572621;247;24094;-82
2022/04/13 08:56:28;;;;;;;30.87;12.13;;;14.70;66.20;14.00;101169;;;;573217;247;24134;-82
2022/04/13 08:59:11;;;;;;;31.87;11.07;;;15.10;65.60;14.40;101175;;;;564790;250;24068;-81
2022/04/13 09:02:09;;;;;;;26.73;11.37;;;15.00;65.50;14.60;101169;;;;563419;250;24220;-82
2022/04/13 09:04:37;;;;;;;28.87;9.77;;;15.40;63.50;14.80;101170;;;;576394;245;24071;-84
2022/04/13 09:07:08;;;;;;;16.83;10.00;;;15.60;63.00;14.90;101165;;;;564845;250;24127;-83
2022/04/13 09:09:35;;;;;;;14.17;9.93;;;15.80;61.80;14.80;101168;;;;570449;250;24092;-82
2022/04/13 09:12:03;;;;;;;18.40;9.33;;;15.80;61.70;14.80;101163;;;;583547;245;24122;-85
2022/04/13 09:14:31;;;;;;;19.60;9.63;;;15.80;61.20;14.80;101166;;;;574728;245;24137;-84
2022/04/13 09:17:02;;;;;;;21.07;11.07;;;15.70;61.50;15.00;101164;;;;574438;245;24097;-83
2022/04/13 09:19:27;;;;;;;25.30;12.57;;;15.80;61.30;15.00;101168;;;;578214;245;35554;-86
2022/04/13 09:21:55;;;;;;;19.37;11.88;;;15.80;61.00;15.00;101165;;;;578632;245;46436;-87
2022/04/13 09:24:23;;;;;;;28.93;12.70;;;15.90;62.00;15.20;101164;;;;581237;245;24094;-87
2022/04/13 09:26:50;;;;;;;17.13;11.47;;;16.00;61.10;15.70;101156;;;;572906;249;24108;-88
2022/04/13 09:29:19;;;;;;;24.37;10.30;;;16.80;59.40;16.10;101155;;;;573549;250;24170;-89
2022/04/13 09:31:51;;;;;;;24.87;11.90;;;16.80;59.20;16.40;101154;;;;573520;250;24132;-86
2022/04/13 09:34:15;;;;;;;17.40;10.70;;;17.20;58.50;16.60;101150;;;;570371;251;24142;-87
2022/04/13 09:36:44;;;;;;;16.20;10.27;;;17.60;56.60;16.50;101163;;;;581656;243;24053;-87
2022/04/13 09:39:12;;;;;;;20.67;11.27;;;17.50;56.50;16.60;101146;;;;585732;243;24174;-88
2022/04/13 09:41:40;;;;;;;21.40;10.47;;;17.60;56.20;17.00;101149;;;;582073;243;24082;-89
2022/04/13 09:44:14;;;;;;;17.50;10.73;;;17.90;55.30;17.00;101150;;;;584564;241;24117;-85
2022/04/13 09:46:42;;;;;;;18.80;9.77;;;17.90;55.20;17.40;101143;;;;570941;246;24123;-88
2022/04/13 09:49:13;;;;;;;13.63;10.03;;;18.40;55.30;17.90;101143;;;;573605;246;24127;-87
2022/04/13 09:51:41;;;;;;;12.80;9.73;;;18.80;52.90;18.30;101146;;;;567850;251;24111;-87
2022/04/13 09:54:12;;;;;;;16.27;11.27;;;19.20;52.30;19.30;101142;;;;575112;245;24104;-88
2022/04/13 09:56:47;;;;;;;14.90;11.13;;;20.20;51.60;19.90;101139;;;;581529;244;24165;-85
2022/04/13 09:59:13;;;;;;;17.03;11.10;;;20.90;50.40;20.20;101139;;;;583868;245;24123;-86
2022/04/13 10:01:41;;;;;;;17.57;11.37;;;21.30;49.70;21.10;101144;;;;578790;246;24095;-85
2022/04/13 10:04:09;;;;;;;15.13;10.87;;;22.10;47.90;21.60;101140;;;;583827;241;24118;-82
2022/04/13 10:06:37;;;;;;;16.20;11.27;;;22.80;46.60;21.90;101138;;;;580427;244;24164;-87
2022/04/13 10:09:08;;;;;;;12.30;10.37;;;23.20;45.10;21.70;101130;;;;580754;245;24092;-87
2022/04/13 10:11:36;;;;;;;16.00;11.23;;;23.10;44.60;21.30;101129;;;;574295;248;24106;-86
2022/04/13 10:14:07;;;;;;;16.13;11.67;;;22.80;44.80;21.00;101129;;;;575379;244;24075;-87
2022/04/13 10:16:35;;;;;;;19.00;10.67;;;22.40;46.20;20.30;101129;;;;580011;245;24071;-82
2022/04/13 10:19:03;;;;;;;14.57;9.90;;;21.10;46.00;19.70;101120;;;;580033;245;23108;-89
2022/04/13 10:21:51;;;;;;;12.27;9.07;;;20.50;46.70;19.20;101116;;;;571082;247;24104;-86
2022/04/13 10:24:30;;;;;;;56.67;12.80;;;20.50;46.60;19.10;101117;;;;573096;248;23143;-88
2022/04/13 10:27:15;;;;;;;17.97;8.30;;;20.10;47.60;19.20;101106;;;;568331;250;24165;-87
2022/04/13 10:29:44;;;;;;;14.27;8.10;;;20.10;47.30;19.10;101111;;;;585146;243;24091;-87
2022/04/13 10:32:14;;;;;;;8.70;6.53;;;20.00;46.60;18.60;101110;;;;590285;243;24083;-87
2022/04/13 10:34:48;;;;;;;15.57;6.53;;;19.60;46.50;18.10;101105;;;;581633;243;24047;-86
2022/04/13 10:37:18;;;;;;;9.87;6.50;;;19.20;46.80;18.00;101113;;;;565660;250;24097;-88
2022/04/13 10:39:45;;;;;;;12.80;6.20;;;19.00;47.40;18.00;101108;;;;574236;249;23140;-87
2022/04/13 10:42:11;;;;;;;13.70;5.53;;;18.80;47.50;17.80;101087;;;;563895;250;24107;-87
2022/04/13 10:44:49;;;;;;;8.13;4.80;;;18.50;47.10;17.70;101099;;;;565454;250;24127;-86
2022/04/13 10:47:36;;;;;;;12.30;5.30;;;18.50;46.70;17.80;101101;;;;570502;250;24109;-87
2022/04/13 10:50:05;;;;;;;11.23;5.20;;;18.50;46.60;17.70;101105;;;;563141;250;24118;-87
2022/04/13 10:52:55;;;;;;;8.73;5.77;;;18.40;46.80;17.40;101108;;;;582833;246;24092;-83
2022/04/13 10:55:27;;;;;;;15.05;6.07;;;18.20;47.00;17.20;101096;;;;570695;245;35331;-87
2022/04/13 10:57:58;;;;;;;11.70;6.60;;;18.00;48.00;17.20;101099;;;;575673;245;24119;-87
2022/04/13 11:00:27;;;;;;;10.97;6.03;;;18.00;48.20;16.90;101103;;;;575633;245;24135;-83
2022/04/13 11:03:05;;;;;;;15.30;6.47;;;17.80;47.90;16.30;101090;;;;580794;245;24077;-88
2022/04/13 11:05:34;;;;;;;12.63;6.33;;;16.80;49.80;15.80;101090;;;;581572;245;24110;-85
2022/04/13 11:08:21;;;;;;;10.37;6.10;;;16.80;49.70;15.70;101099;;;;575972;245;24078;-85
2022/04/13 11:10:48;;;;;;;9.13;5.80;;;16.60;50.60;15.30;101087;;;;584717;245;24158;-86
2022/04/13 11:13:22;;;;;;;10.07;6.70;;;16.20;51.20;15.10;101078;;;;575246;245;24100;-87